createdAt,value
2018-10-09T00:00:58.084Z,101949.50
2018-10-09T00:03:26.830Z,101953.95
2018-10-09T00:05:55.578Z,101955.76
2018-10-09T00:08:24.321Z,101948.19
2018-10-09T00:10:53.040Z,101956.00
2018-10-09T00:13:21.792Z,101962.70
2018-10-09T00:15:50.612Z,101959.75
2018-10-09T00:18:19.373Z,101959.05
2018-10-09T00:20:48.092Z,101969.67
2018-10-09T00:23:16.796Z,101966.39
2018-10-09T00:25:45.519Z,101961.80
2018-10-09T00:28:14.291Z,101963.55
2018-10-09T00:30:43.032Z,101961.05
2018-10-09T00:33:11.760Z,101961.12
2018-10-09T00:35:40.508Z,101962.55
2018-10-09T00:38:09.225Z,101954.82
2018-10-09T00:40:37.976Z,101952.32
2018-10-09T00:43:06.758Z,101947.20
2018-10-09T00:45:35.476Z,101944.70
2018-10-09T00:48:04.249Z,101940.07
2018-10-09T00:50:33.038Z,101946.27
2018-10-09T00:53:01.809Z,101944.15
2018-10-09T00:55:30.552Z,101943.36
2018-10-09T00:57:59.273Z,101950.87
2018-10-09T01:00:27.981Z,101954.38
2018-10-09T01:02:56.765Z,101949.27
2018-10-09T01:05:25.597Z,101943.70
2018-10-09T01:07:54.769Z,101942.05
2018-10-09T01:10:23.506Z,101941.27
2018-10-09T01:12:52.232Z,101941.38
2018-10-09T01:15:21.018Z,101939.22
2018-10-09T01:17:49.745Z,101943.20
2018-10-09T01:20:23.476Z,101937.30
2018-10-09T01:22:52.250Z,101928.60
2018-10-09T01:25:21.087Z,101927.81
2018-10-09T01:27:50.031Z,101924.80
2018-10-09T01:30:18.837Z,101928.72
2018-10-09T01:32:47.521Z,101921.28
2018-10-09T01:35:16.291Z,101918.15
2018-10-09T01:37:45.027Z,101917.63
2018-10-09T01:40:13.760Z,101918.94
2018-10-09T01:42:42.516Z,101921.10
2018-10-09T01:45:11.273Z,101911.05
2018-10-09T01:47:40.026Z,101904.04
2018-10-09T01:50:08.783Z,101902.73
2018-10-09T01:52:37.521Z,101898.81
2018-10-09T01:55:06.699Z,101900.12
2018-10-09T01:57:35.517Z,101895.83
2018-10-09T02:00:04.631Z,101890.59
2018-10-09T02:02:41.771Z,101889.29
2018-10-09T02:05:10.629Z,101882.30
2018-10-09T02:08:10.129Z,101884.44
2018-10-09T02:10:38.851Z,101883.20
2018-10-09T02:13:07.637Z,101880.19
2018-10-09T02:15:36.392Z,101874.73
2018-10-09T02:18:05.124Z,101883.84
2018-10-09T02:20:33.906Z,101882.64
2018-10-09T02:23:10.016Z,101881.41
2018-10-09T02:25:38.768Z,101881.56
2018-10-09T02:28:07.539Z,101879.98
2018-10-09T02:30:36.283Z,101880.63
2018-10-09T02:33:05.027Z,101879.47
2018-10-09T02:35:33.802Z,101875.73
2018-10-09T02:38:02.563Z,101867.14
2018-10-09T02:40:31.263Z,101865.56
2018-10-09T02:43:00.088Z,101861.76
2018-10-09T02:45:28.807Z,101855.34
2018-10-09T02:47:57.516Z,101849.37
2018-10-09T02:53:07.712Z,101850.89
2018-10-09T02:55:36.505Z,101841.00
2018-10-09T02:58:05.353Z,101848.49
2018-10-09T03:00:34.150Z,101842.52
2018-10-09T03:03:02.909Z,101844.34
2018-10-09T03:05:31.676Z,101843.14
2018-10-09T03:08:00.484Z,101846.72
2018-10-09T03:10:29.268Z,101850.67
2018-10-09T03:12:58.089Z,101848.58
2018-10-09T03:15:26.841Z,101844.77
2018-10-09T03:17:55.580Z,101836.66
2018-10-09T03:20:24.313Z,101837.21
2018-10-09T03:22:53.125Z,101836.42
2018-10-09T03:25:21.836Z,101830.86
2018-10-09T03:27:50.580Z,101835.33
2018-10-09T03:30:19.324Z,101840.20
2018-10-09T03:32:48.128Z,101831.62
2018-10-09T03:35:16.909Z,101840.41
2018-10-09T03:37:45.618Z,101839.99
2018-10-09T03:40:14.360Z,101831.38
2018-10-09T03:42:44.096Z,101833.20
2018-10-09T03:45:12.876Z,101827.22
2018-10-09T03:47:41.659Z,101823.82
2018-10-09T03:50:10.434Z,101820.87
2018-10-09T03:52:39.140Z,101823.16
2018-10-09T03:55:07.992Z,101817.67
2018-10-09T03:57:36.720Z,101821.17
2018-10-09T04:00:05.634Z,101816.91
2018-10-09T04:02:34.401Z,101814.38
2018-10-09T04:05:03.143Z,101810.56
2018-10-09T04:07:31.859Z,101811.45
2018-10-09T04:10:00.623Z,101807.64
2018-10-09T04:12:29.357Z,101806.84
2018-10-09T04:14:58.148Z,101802.14
2018-10-09T04:17:26.910Z,101800.05
2018-10-09T04:19:55.662Z,101799.29
2018-10-09T04:22:24.439Z,101800.72
2018-10-09T04:24:53.228Z,101802.54
2018-10-09T04:27:21.956Z,101797.94
2018-10-09T04:29:50.707Z,101802.00
2018-10-09T04:32:19.432Z,101794.79
2018-10-09T04:34:48.275Z,101803.15
2018-10-09T04:37:17.043Z,101800.23
2018-10-09T04:39:45.866Z,101789.89
2018-10-09T04:42:14.717Z,101790.81
2018-10-09T04:44:43.456Z,101793.45
2018-10-09T04:47:12.209Z,101792.73
2018-10-09T04:49:41.107Z,101790.72
2018-10-09T04:52:09.926Z,101791.26
2018-10-09T04:54:38.716Z,101785.73
2018-10-09T04:57:07.521Z,101786.68
2018-10-09T04:59:36.271Z,101785.47
2018-10-09T05:02:05.016Z,101784.67
2018-10-09T05:04:33.779Z,101785.21
2018-10-09T05:07:02.512Z,101790.48
2018-10-09T05:09:31.326Z,101790.13
2018-10-09T05:12:00.089Z,101787.08
2018-10-09T05:14:28.815Z,101792.85
2018-10-09T05:16:57.578Z,101790.34
2018-10-09T05:19:26.393Z,101795.64
2018-10-09T05:21:55.156Z,101797.80
2018-10-09T05:24:23.982Z,101799.55
2018-10-09T05:26:52.739Z,101801.73
2018-10-09T05:29:21.477Z,101802.17
2018-10-09T05:31:50.278Z,101799.55
2018-10-09T05:34:19.051Z,101806.85
2018-10-09T05:36:47.814Z,101800.31
2018-10-09T05:39:16.558Z,101803.27
2018-10-09T05:41:45.339Z,101804.86
2018-10-09T05:44:14.163Z,101807.41
2018-10-09T05:46:42.993Z,101810.34
2018-10-09T05:49:11.729Z,101809.33
2018-10-09T05:51:40.528Z,101809.23
2018-10-09T05:54:09.317Z,101803.88
2018-10-09T05:56:38.120Z,101805.44
2018-10-09T05:59:06.892Z,101806.23
2018-10-09T06:01:35.653Z,101806.99
2018-10-09T06:04:04.514Z,101807.76
2018-10-09T06:06:33.327Z,101804.13
2018-10-09T06:09:02.189Z,101803.15
2018-10-09T06:11:30.959Z,101804.80
2018-10-09T06:13:59.755Z,101807.25
2018-10-09T06:16:28.592Z,101811.48
2018-10-09T06:18:57.410Z,101810.45
2018-10-09T06:21:26.231Z,101817.29
2018-10-09T06:23:55.020Z,101809.37
2018-10-09T06:26:23.759Z,101810.16
2018-10-09T06:28:52.531Z,101815.31
2018-10-09T06:31:21.323Z,101811.81
2018-10-09T06:33:50.188Z,101812.70
2018-10-09T06:36:18.970Z,101818.84
2018-10-09T06:38:47.790Z,101818.88
2018-10-09T06:41:16.850Z,101819.80
2018-10-09T06:43:45.652Z,101821.58
2018-10-09T06:46:17.534Z,101828.58
2018-10-09T06:48:47.228Z,101819.93
2018-10-09T06:51:16.013Z,101824.19
2018-10-09T06:53:45.066Z,101825.63
2018-10-09T06:56:14.000Z,101825.20
2018-10-09T06:58:42.852Z,101823.48
2018-10-09T07:01:11.695Z,101829.63
2018-10-09T07:03:40.500Z,101829.22
2018-10-09T07:06:09.512Z,101834.02
2018-10-09T07:08:38.409Z,101837.92
2018-10-09T07:11:07.368Z,101831.03
2018-10-09T07:13:36.101Z,101827.98
2018-10-09T07:16:04.889Z,101833.56
2018-10-09T07:18:33.655Z,101823.59
2018-10-09T07:21:02.481Z,101826.20
2018-10-09T07:23:31.355Z,101828.77
2018-10-09T07:26:00.111Z,101832.17
2018-10-09T07:28:28.883Z,101827.30
2018-10-09T07:30:57.673Z,101831.22
2018-10-09T07:33:26.422Z,101835.03
2018-10-09T07:35:55.232Z,101827.55
2018-10-09T07:38:24.156Z,101832.67
2018-10-09T07:40:52.931Z,101832.64
2018-10-09T07:43:21.667Z,101839.03
2018-10-09T07:45:50.538Z,101837.63
2018-10-09T07:48:19.279Z,101828.02
2018-10-09T07:50:48.018Z,101827.52
2018-10-09T07:53:16.744Z,101828.72
2018-10-09T07:55:45.452Z,101826.84
2018-10-09T07:58:14.281Z,101830.64
2018-10-09T08:00:43.008Z,101830.99
2018-10-09T08:03:11.736Z,101832.20
2018-10-09T08:05:40.500Z,101832.51
2018-10-09T08:08:09.253Z,101833.70
2018-10-09T08:10:38.082Z,101836.59
2018-10-09T08:13:07.649Z,101833.88
2018-10-09T08:15:36.400Z,101844.22
2018-10-09T08:18:05.410Z,101838.89
2018-10-09T08:20:34.144Z,101841.34
2018-10-09T08:23:02.916Z,101844.70
2018-10-09T08:25:33.942Z,101836.77
2018-10-09T08:28:02.760Z,101838.23
2018-10-09T08:30:31.499Z,101836.20
2018-10-09T08:33:00.260Z,101833.27
2018-10-09T08:35:29.052Z,101829.95
2018-10-09T08:37:57.865Z,101837.06
2018-10-09T08:40:26.775Z,101833.75
2018-10-09T08:42:55.581Z,101836.58
2018-10-09T08:45:24.345Z,101833.22
2018-10-09T08:47:53.095Z,101836.99
2018-10-09T08:50:21.891Z,101833.30
2018-10-09T08:52:50.676Z,101835.68
2018-10-09T08:55:19.524Z,101829.30
2018-10-09T08:57:48.296Z,101832.57
2018-10-09T09:00:17.132Z,101833.65
2018-10-09T09:02:45.916Z,101830.80
2018-10-09T09:05:14.782Z,101834.08
2018-10-09T09:07:43.658Z,101836.45
2018-10-09T09:10:12.444Z,101834.02
2018-10-09T09:12:41.233Z,101834.23
2018-10-09T09:15:10.094Z,101837.05
2018-10-09T09:17:38.865Z,101834.20
2018-10-09T09:20:07.643Z,101839.26
2018-10-09T09:22:36.408Z,101837.75
2018-10-09T09:25:05.189Z,101842.78
2018-10-09T09:27:34.036Z,101843.92
2018-10-09T09:30:02.816Z,101842.41
2018-10-09T09:32:31.688Z,101843.06
2018-10-09T09:35:00.475Z,101837.63
2018-10-09T09:37:29.245Z,101834.88
2018-10-09T09:39:58.004Z,101823.87
2018-10-09T09:42:26.752Z,101830.98
2018-10-09T09:44:55.701Z,101827.78
2018-10-09T09:47:24.473Z,101827.94
2018-10-09T09:49:53.225Z,101828.62
2018-10-09T09:52:22.037Z,101827.59
2018-10-09T09:54:50.766Z,101832.16
2018-10-09T09:57:19.543Z,101831.91
2018-10-09T09:59:48.314Z,101840.40
2018-10-09T10:02:17.064Z,101839.65
2018-10-09T10:04:45.916Z,101841.55
2018-10-09T10:07:14.694Z,101833.75
2018-10-09T10:09:43.437Z,101831.23
2018-10-09T10:12:12.216Z,101833.97
2018-10-09T10:14:40.970Z,101831.45
2018-10-09T10:17:09.698Z,101833.39
2018-10-09T10:19:38.446Z,101830.50
2018-10-09T10:22:07.309Z,101823.98
2018-10-09T10:24:36.097Z,101832.24
2018-10-09T10:27:04.842Z,101831.50
2018-10-09T10:29:33.597Z,101822.93
2018-10-09T10:32:02.330Z,101829.97
2018-10-09T10:34:31.088Z,101823.48
2018-10-09T10:36:59.817Z,101823.87
2018-10-09T10:39:28.592Z,101823.43
2018-10-09T10:41:57.370Z,101827.38
2018-10-09T10:44:26.177Z,101819.27
2018-10-09T10:46:54.953Z,101826.08
2018-10-09T10:49:24.617Z,101825.59
2018-10-09T10:51:53.491Z,101821.10
2018-10-09T10:54:22.280Z,101821.95
2018-10-09T10:56:51.029Z,101821.95
2018-10-09T10:59:19.755Z,101819.77
2018-10-09T11:01:48.577Z,101816.30
2018-10-09T11:04:17.347Z,101811.25
2018-10-09T11:06:46.120Z,101808.47
2018-10-09T11:09:14.940Z,101808.24
2018-10-09T11:11:43.694Z,101803.58
2018-10-09T11:14:12.521Z,101804.58
2018-10-09T11:16:41.299Z,101809.87
2018-10-09T11:19:10.056Z,101808.13
2018-10-09T11:21:38.919Z,101808.89
2018-10-09T11:24:07.656Z,101803.53
2018-10-09T11:26:36.488Z,101806.02
2018-10-09T11:29:05.275Z,101808.91
2018-10-09T11:31:34.066Z,101811.39
2018-10-09T11:34:02.834Z,101808.81
2018-10-09T11:36:31.663Z,101811.12
2018-10-09T11:39:00.448Z,101811.75
2018-10-09T11:41:29.195Z,101808.48
2018-10-09T11:43:58.003Z,101803.03
2018-10-09T11:46:26.790Z,101805.66
2018-10-09T11:48:55.577Z,101802.94
2018-10-09T11:51:24.339Z,101804.25
2018-10-09T11:53:53.056Z,101803.15
2018-10-09T11:56:21.852Z,101804.26
2018-10-09T11:58:50.659Z,101797.72
2018-10-09T12:01:19.448Z,101797.36
2018-10-09T12:03:48.192Z,101801.50
2018-10-09T12:06:17.146Z,101808.30
2018-10-09T12:08:45.923Z,101800.97
2018-10-09T12:11:14.674Z,101808.05
2018-10-09T12:13:43.454Z,101801.17
2018-10-09T12:16:12.203Z,101797.25
2018-10-09T12:18:40.968Z,101792.36
2018-10-09T12:21:09.724Z,101790.67
2018-10-09T12:23:38.525Z,101785.56
2018-10-09T12:26:07.321Z,101785.31
2018-10-09T12:28:36.035Z,101786.17
2018-10-09T12:31:04.796Z,101790.41
2018-10-09T12:33:33.545Z,101784.84
2018-10-09T12:36:02.367Z,101775.72
2018-10-09T12:38:31.129Z,101773.91
2018-10-09T12:40:59.861Z,101783.61
2018-10-09T12:43:28.611Z,101773.73
2018-10-09T12:45:57.387Z,101776.91
2018-10-09T12:48:26.157Z,101778.39
2018-10-09T12:50:54.960Z,101779.45
2018-10-09T12:53:23.998Z,101779.25
2018-10-09T12:55:52.788Z,101777.83
2018-10-09T12:58:21.556Z,101775.31
2018-10-09T13:00:50.365Z,101776.63
2018-10-09T13:03:19.091Z,101774.06
2018-10-09T13:05:47.796Z,101765.56
2018-10-09T13:08:16.536Z,101764.32
2018-10-09T13:10:45.312Z,101766.72
2018-10-09T13:13:14.060Z,101765.67
2018-10-09T13:15:42.820Z,101766.69
2018-10-09T13:18:11.553Z,101760.07
2018-10-09T13:20:40.273Z,101759.48
2018-10-09T13:23:09.029Z,101758.11
2018-10-09T13:25:37.767Z,101754.27
2018-10-09T13:28:06.525Z,101746.67
2018-10-09T13:30:35.287Z,101754.19
2018-10-09T13:33:04.097Z,101744.58
2018-10-09T13:35:32.905Z,101740.80
2018-10-09T13:38:01.719Z,101740.00
2018-10-09T13:40:30.500Z,101744.48
2018-10-09T13:42:59.337Z,101739.44
2018-10-09T13:45:28.057Z,101740.91
2018-10-09T13:47:56.780Z,101731.06
2018-10-09T13:50:25.560Z,101728.58
2018-10-09T13:52:54.317Z,101730.33
2018-10-09T13:55:23.116Z,101729.34
2018-10-09T13:57:51.816Z,101732.03
2018-10-09T14:00:20.678Z,101719.33
2018-10-09T14:02:49.371Z,101713.39
2018-10-09T14:05:18.192Z,101708.61
2018-10-09T14:07:47.011Z,101708.23
2018-10-09T14:10:15.764Z,101707.03
2018-10-09T14:12:44.529Z,101710.66
2018-10-09T14:15:13.293Z,101707.36
2018-10-09T14:17:41.943Z,101707.73
2018-10-09T14:20:10.670Z,101701.37
2018-10-09T14:22:39.454Z,101698.01
2018-10-09T14:25:08.211Z,101704.19
2018-10-09T14:27:36.950Z,101702.55
2018-10-09T14:30:06.161Z,101697.78
2018-10-09T14:32:34.880Z,101695.06
2018-10-09T14:35:03.668Z,101693.73
2018-10-09T14:37:32.408Z,101688.54
2018-10-09T14:40:01.101Z,101687.21
2018-10-09T14:42:29.885Z,101688.22
2018-10-09T14:44:58.606Z,101679.67
2018-10-09T14:47:27.354Z,101687.80
2018-10-09T14:49:56.098Z,101680.59
2018-10-09T14:52:24.837Z,101680.94
2018-10-09T14:54:53.620Z,101683.51
2018-10-09T14:57:22.384Z,101683.16
2018-10-09T14:59:51.059Z,101685.58
2018-10-09T15:02:19.821Z,101686.74
2018-10-09T15:04:48.514Z,101691.47
2018-10-09T15:07:17.226Z,101689.18
2018-10-09T15:09:45.952Z,101682.22
2018-10-09T15:12:14.782Z,101685.34
2018-10-09T15:14:43.479Z,101683.88
2018-10-09T15:17:12.332Z,101685.91
2018-10-09T15:19:41.016Z,101683.72
2018-10-09T15:22:09.812Z,101688.52
2018-10-09T15:24:38.516Z,101681.66
2018-10-09T15:27:07.308Z,101680.27
2018-10-09T15:29:36.032Z,101685.56
2018-10-09T15:32:04.780Z,101680.86
2018-10-09T15:34:33.488Z,101675.66
2018-10-09T15:37:02.245Z,101674.21
2018-10-09T15:39:31.016Z,101670.36
2018-10-09T15:41:59.752Z,101671.11
2018-10-09T15:44:28.556Z,101671.58
2018-10-09T15:46:57.263Z,101676.90
2018-10-09T15:49:26.036Z,101682.48
2018-10-09T15:51:54.783Z,101671.42
2018-10-09T15:54:23.508Z,101680.97
2018-10-09T15:56:52.217Z,101679.45
2018-10-09T15:59:20.989Z,101679.48
2018-10-09T16:01:49.732Z,101672.11
2018-10-09T16:04:18.439Z,101675.26
2018-10-09T16:06:47.178Z,101669.98
2018-10-09T16:09:15.972Z,101666.61
2018-10-09T16:11:44.763Z,101666.02
2018-10-09T16:14:13.508Z,101662.05
2018-10-09T16:16:42.337Z,101656.13
2018-10-09T16:19:11.092Z,101660.60
2018-10-09T16:21:40.453Z,101653.36
2018-10-09T16:24:09.391Z,101655.53
2018-10-09T16:26:38.099Z,101656.95
2018-10-09T16:29:06.888Z,101656.80
2018-10-09T16:31:35.632Z,101656.20
2018-10-09T16:34:04.421Z,101651.66
2018-10-09T16:36:33.253Z,101652.23
2018-10-09T16:39:02.120Z,101657.78
2018-10-09T16:41:30.861Z,101665.94
2018-10-09T16:43:59.610Z,101664.94
2018-10-09T16:46:28.423Z,101660.37
2018-10-09T16:48:57.129Z,101659.11
2018-10-09T16:51:25.888Z,101647.61
2018-10-09T16:53:54.643Z,101652.08
2018-10-09T16:56:23.437Z,101645.39
2018-10-09T16:58:52.210Z,101648.92
2018-10-09T17:01:20.962Z,101647.77
2018-10-09T17:03:49.725Z,101650.57
2018-10-09T17:06:18.501Z,101655.72
2018-10-09T17:08:47.240Z,101659.13
2018-10-09T17:11:15.974Z,101658.54
2018-10-09T17:13:44.709Z,101661.06
2018-10-09T17:16:13.624Z,101659.91
2018-10-09T17:18:42.564Z,101658.47
2018-10-09T17:21:11.368Z,101656.63
2018-10-09T17:23:40.174Z,101656.84
2018-10-09T17:26:08.944Z,101659.66
2018-10-09T17:28:37.945Z,101654.20
2018-10-09T17:31:06.744Z,101660.14
2018-10-09T17:33:35.516Z,101666.06
2018-10-09T17:36:04.267Z,101665.88
2018-10-09T17:38:33.009Z,101663.03
2018-10-09T17:41:01.726Z,101663.22
2018-10-09T17:43:30.518Z,101671.25
2018-10-09T17:45:59.212Z,101667.48
2018-10-09T17:48:27.959Z,101669.32
2018-10-09T17:50:56.656Z,101665.54
2018-10-09T17:53:25.399Z,101663.50
2018-10-09T17:55:54.148Z,101656.97
2018-10-09T17:58:22.874Z,101661.25
2018-10-09T18:00:51.696Z,101664.71
2018-10-09T18:03:22.404Z,101659.89
2018-10-09T18:05:51.289Z,101659.47
2018-10-09T18:08:20.202Z,101654.16
2018-10-09T18:10:48.925Z,101661.13
2018-10-09T18:13:17.652Z,101657.16
2018-10-09T18:15:46.485Z,101649.67
2018-10-09T18:18:15.246Z,101650.48
2018-10-09T18:20:44.120Z,101640.77
2018-10-09T18:23:12.849Z,101639.78
2018-10-09T18:25:41.717Z,101642.36
2018-10-09T18:28:10.652Z,101646.27
2018-10-09T18:30:39.526Z,101647.95
2018-10-09T18:33:08.396Z,101643.05
2018-10-09T18:35:37.020Z,101645.53
2018-10-09T18:38:05.726Z,101644.54
2018-10-09T18:40:34.534Z,101643.08
2018-10-09T18:43:03.232Z,101644.16
2018-10-09T18:45:31.956Z,101636.63
2018-10-09T18:48:00.745Z,101642.55
2018-10-09T18:50:29.481Z,101641.02
2018-10-09T18:52:58.184Z,101637.79
2018-10-09T18:55:26.925Z,101637.24
2018-10-09T18:57:55.742Z,101643.30
2018-10-09T19:00:24.458Z,101641.53
2018-10-09T19:02:53.215Z,101643.14
2018-10-09T19:05:21.928Z,101641.37
2018-10-09T19:07:50.675Z,101642.06
2018-10-09T19:10:19.449Z,101632.42
2018-10-09T19:12:48.206Z,101642.14
2018-10-09T19:15:16.945Z,101649.74
2018-10-09T19:17:45.802Z,101651.29
2018-10-09T19:20:14.534Z,101642.72
2018-10-09T19:22:43.277Z,101648.59
2018-10-09T19:25:11.993Z,101643.55
2018-10-09T19:27:40.800Z,101641.47
2018-10-09T19:30:09.652Z,101647.63
2018-10-09T19:32:38.480Z,101650.42
2018-10-09T19:35:07.353Z,101652.38
2018-10-09T19:37:36.085Z,101651.16
2018-10-09T19:40:05.032Z,101657.79
2018-10-09T19:42:33.801Z,101654.00
2018-10-09T19:45:03.753Z,101651.89
2018-10-09T19:47:35.373Z,101647.59
2018-10-09T19:50:04.590Z,101654.69
2018-10-09T19:52:33.502Z,101655.59
2018-10-09T19:55:02.237Z,101658.61
2018-10-09T19:57:31.056Z,101656.36
2018-10-09T19:59:59.826Z,101649.45
2018-10-09T20:02:28.573Z,101651.21
2018-10-09T20:04:57.352Z,101655.59
2018-10-09T20:07:26.101Z,101656.91
2018-10-09T20:09:54.876Z,101646.12
2018-10-09T20:12:23.603Z,101649.45
2018-10-09T20:14:52.327Z,101641.64
2018-10-09T20:17:21.056Z,101649.09
2018-10-09T20:19:49.859Z,101645.26
2018-10-09T20:22:18.640Z,101640.93
2018-10-09T20:24:47.410Z,101644.86
2018-10-09T20:27:16.195Z,101644.03
2018-10-09T20:29:44.905Z,101637.95
2018-10-09T20:32:13.657Z,101640.56
2018-10-09T20:34:42.398Z,101636.69
2018-10-09T20:37:11.149Z,101632.31
2018-10-09T20:39:39.921Z,101634.07
2018-10-09T20:42:08.723Z,101633.70
2018-10-09T20:44:37.496Z,101638.85
2018-10-09T20:47:06.300Z,101635.38
2018-10-09T20:49:35.047Z,101641.88
2018-10-09T20:52:03.806Z,101644.03
2018-10-09T20:54:32.620Z,101650.09
2018-10-09T20:57:01.408Z,101642.02
2018-10-09T20:59:30.247Z,101647.11
2018-10-09T21:01:59.020Z,101641.42
2018-10-09T21:04:27.778Z,101648.42
2018-10-09T21:06:56.582Z,101639.30
2018-10-09T21:09:25.330Z,101640.16
2018-10-09T21:11:54.062Z,101632.08
2018-10-09T21:14:22.857Z,101640.70
2018-10-09T21:16:51.612Z,101642.87
2018-10-09T21:19:20.346Z,101632.53
2018-10-09T21:21:49.100Z,101646.39
2018-10-09T21:24:17.827Z,101648.56
2018-10-09T21:26:46.577Z,101646.48
2018-10-09T21:29:15.366Z,101647.39
2018-10-09T21:31:44.109Z,101654.78
2018-10-09T21:34:12.865Z,101653.48
2018-10-09T21:36:41.668Z,101655.24
2018-10-09T21:39:10.829Z,101657.46
2018-10-09T21:41:39.736Z,101659.71
2018-10-09T21:44:08.544Z,101655.52
2018-10-09T21:46:37.415Z,101656.69
2018-10-09T21:49:06.279Z,101661.52
2018-10-09T21:51:35.103Z,101658.09
2018-10-09T21:54:03.858Z,101661.16
2018-10-09T21:56:32.665Z,101666.39
2018-10-09T21:59:01.363Z,101662.46
2018-10-09T22:01:30.080Z,101662.06
2018-10-09T22:03:58.804Z,101662.52
2018-10-09T22:06:27.525Z,101663.00
2018-10-09T22:08:56.304Z,101663.45
2018-10-09T22:11:25.068Z,101663.05
2018-10-09T22:13:53.825Z,101659.59
2018-10-09T22:16:22.559Z,101659.22
2018-10-09T22:18:51.476Z,101663.05
2018-10-09T22:21:20.215Z,101666.21
2018-10-09T22:23:48.975Z,101665.67
2018-10-09T22:26:17.660Z,101666.53
2018-10-09T22:28:46.421Z,101664.81
2018-10-09T22:31:15.218Z,101660.39
2018-10-09T22:33:43.989Z,101665.62
2018-10-09T22:36:12.716Z,101665.14
2018-10-09T22:38:41.503Z,101667.70
2018-10-09T22:41:10.297Z,101656.83
2018-10-09T22:43:39.013Z,101653.75
2018-10-09T22:46:07.833Z,101651.59
2018-10-09T22:48:36.549Z,101648.61
2018-10-09T22:51:05.353Z,101648.20
2018-10-09T22:53:34.086Z,101640.09
2018-10-09T22:56:02.827Z,101649.11
2018-10-09T22:58:31.556Z,101637.47
2018-10-09T23:01:00.404Z,101638.01
2018-10-09T23:03:29.119Z,101636.16
2018-10-09T23:05:57.901Z,101629.25
2018-10-09T23:08:26.609Z,101630.56
2018-10-09T23:10:55.360Z,101631.02
2018-10-09T23:13:24.142Z,101628.48
2018-10-09T23:15:52.959Z,101625.91
2018-10-09T23:18:21.727Z,101630.75
2018-10-09T23:20:50.459Z,101623.52
2018-10-09T23:23:19.150Z,101620.13
2018-10-09T23:25:47.901Z,101626.51
2018-10-09T23:28:16.696Z,101616.04
2018-10-09T23:30:45.490Z,101615.72
2018-10-09T23:33:14.229Z,101613.59
2018-10-09T23:35:43.058Z,101610.57
2018-10-09T23:38:11.808Z,101618.02
2018-10-09T23:40:40.576Z,101621.09
2018-10-09T23:43:09.399Z,101620.27
2018-10-09T23:45:38.129Z,101617.25
2018-10-09T23:48:09.910Z,101617.25
2018-10-09T23:50:40.462Z,101611.16
2018-10-09T23:53:09.300Z,101609.85
2018-10-09T23:55:38.233Z,101610.31
2018-10-09T23:58:07.412Z,101611.16
